Hauptseite
METAR-TAF:

METAR-TAF

Flughäfen :

Spadeadam, England

RAF Spadeadam

Breite: 55-03N, Länge: 002-33W, Höhe: 325 m

Beobachtung

Neuester Wetterbericht von vor 1 Stunde und 12 Minuten, um 08:50 UTC
Wind 12 kt aus Ost
Temperatur 0°C
Luftfeuchtigkeit 74%
Luftdruck 1029 hPa
Sichtweite 10 km oder mehr

METAR: EGOM 250850Z AUTO 10012KT 9999 BKN017/// M00/M04 Q1029

Zeit: 10:02 (10:02 UTC)


TAF: fehlend

Wetterbeobachtungen und Prognosen von mehr als 4000 Flughäfen (METAR und TAF Bericht).

Die verfügbaren Stationen werden durch gelbe und rote Markierungen auf der Karte dargestellt.

Führen Sie die Maus auf sie, um den Namen der Station zu sehen.

Darauf klicken, um die Beobachtung von Wetterbeobachtungen und Prognosen zu sehen.

Um die Karte zu ändern : klicken Sie auf den grünen Tasten mit einem schwarzen Kreuz Zum Vergrößern, auf den grünen Button mit einem Gedankenstrich zu verkleinern, oder auf die grünen Pfeile für benachbarte Karten.


METAR-TAF: